sensor_id;sensor_type;location;lat;lon;timestamp;P1;durP1;ratioP1;P2;durP2;ratioP2
11807;SDS011;5961;42.640;23.380;2022-08-21T00:00:03;11.00;;;6.93;;
11807;SDS011;5961;42.640;23.380;2022-08-21T00:02:33;10.75;;;6.20;;
11807;SDS011;5961;42.640;23.380;2022-08-21T00:05:00;12.82;;;8.80;;
11807;SDS011;5961;42.640;23.380;2022-08-21T00:07:27;12.15;;;7.28;;
11807;SDS011;5961;42.640;23.380;2022-08-21T00:09:54;8.30;;;6.25;;
11807;SDS011;5961;42.640;23.380;2022-08-21T00:12:22;7.32;;;5.45;;
11807;SDS011;5961;42.640;23.380;2022-08-21T00:14:49;9.00;;;5.40;;
11807;SDS011;5961;42.640;23.380;2022-08-21T00:17:16;13.10;;;6.97;;
11807;SDS011;5961;42.640;23.380;2022-08-21T00:19:43;9.48;;;6.68;;
11807;SDS011;5961;42.640;23.380;2022-08-21T00:22:09;10.95;;;5.85;;
11807;SDS011;5961;42.640;23.380;2022-08-21T00:24:36;8.27;;;5.43;;
11807;SDS011;5961;42.640;23.380;2022-08-21T00:27:03;9.80;;;6.18;;
11807;SDS011;5961;42.640;23.380;2022-08-21T00:29:31;11.73;;;6.85;;
11807;SDS011;5961;42.640;23.380;2022-08-21T00:31:58;10.75;;;6.43;;
11807;SDS011;5961;42.640;23.380;2022-08-21T00:34:25;9.48;;;6.32;;
11807;SDS011;5961;42.640;23.380;2022-08-21T00:36:52;6.20;;;4.13;;
11807;SDS011;5961;42.640;23.380;2022-08-21T00:39:18;8.25;;;4.60;;
11807;SDS011;5961;42.640;23.380;2022-08-21T00:41:45;6.85;;;4.05;;
11807;SDS011;5961;42.640;23.380;2022-08-21T00:44:12;6.72;;;4.03;;
11807;SDS011;5961;42.640;23.380;2022-08-21T00:46:42;8.38;;;4.03;;
11807;SDS011;5961;42.640;23.380;2022-08-21T00:49:09;5.78;;;4.07;;
11807;SDS011;5961;42.640;23.380;2022-08-21T00:51:38;7.60;;;3.78;;
11807;SDS011;5961;42.640;23.380;2022-08-21T00:54:08;5.82;;;3.55;;
11807;SDS011;5961;42.640;23.380;2022-08-21T00:56:37;5.68;;;3.83;;
11807;SDS011;5961;42.640;23.380;2022-08-21T00:59:04;6.00;;;3.83;;
11807;SDS011;5961;42.640;23.380;2022-08-21T01:01:31;6.38;;;3.60;;
11807;SDS011;5961;42.640;23.380;2022-08-21T01:04:00;4.53;;;3.35;;
11807;SDS011;5961;42.640;23.380;2022-08-21T01:06:26;4.95;;;3.95;;
11807;SDS011;5961;42.640;23.380;2022-08-21T01:08:53;6.82;;;4.30;;
11807;SDS011;5961;42.640;23.380;2022-08-21T01:11:20;7.82;;;4.75;;
11807;SDS011;5961;42.640;23.380;2022-08-21T01:13:47;11.40;;;6.25;;
11807;SDS011;5961;42.640;23.380;2022-08-21T01:16:15;8.43;;;5.97;;
11807;SDS011;5961;42.640;23.380;2022-08-21T01:18:45;8.25;;;5.68;;
11807;SDS011;5961;42.640;23.380;2022-08-21T01:21:14;9.32;;;5.97;;
11807;SDS011;5961;42.640;23.380;2022-08-21T01:23:43;11.25;;;6.35;;
11807;SDS011;5961;42.640;23.380;2022-08-21T01:26:12;11.40;;;5.85;;
11807;SDS011;5961;42.640;23.380;2022-08-21T01:28:42;9.30;;;5.95;;
11807;SDS011;5961;42.640;23.380;2022-08-21T01:31:14;13.98;;;8.05;;
11807;SDS011;5961;42.640;23.380;2022-08-21T01:33:44;10.73;;;7.03;;
11807;SDS011;5961;42.640;23.380;2022-08-21T01:36:10;11.55;;;6.72;;
11807;SDS011;5961;42.640;23.380;2022-08-21T01:38:38;13.85;;;8.85;;
11807;SDS011;5961;42.640;23.380;2022-08-21T01:41:05;14.95;;;8.70;;
11807;SDS011;5961;42.640;23.380;2022-08-21T01:43:32;15.20;;;8.67;;
11807;SDS011;5961;42.640;23.380;2022-08-21T01:45:59;13.48;;;8.57;;
11807;SDS011;5961;42.640;23.380;2022-08-21T01:48:26;14.70;;;8.02;;
11807;SDS011;5961;42.640;23.380;2022-08-21T01:50:53;14.47;;;8.07;;
11807;SDS011;5961;42.640;23.380;2022-08-21T01:53:19;11.80;;;7.73;;
11807;SDS011;5961;42.640;23.380;2022-08-21T01:55:47;12.80;;;8.13;;
11807;SDS011;5961;42.640;23.380;2022-08-21T01:58:14;13.53;;;9.23;;
11807;SDS011;5961;42.640;23.380;2022-08-21T02:00:41;17.17;;;10.20;;
11807;SDS011;5961;42.640;23.380;2022-08-21T02:03:08;17.85;;;10.75;;
11807;SDS011;5961;42.640;23.380;2022-08-21T02:05:34;16.50;;;11.63;;
11807;SDS011;5961;42.640;23.380;2022-08-21T02:08:01;18.63;;;10.83;;
11807;SDS011;5961;42.640;23.380;2022-08-21T02:10:29;20.53;;;10.80;;
11807;SDS011;5961;42.640;23.380;2022-08-21T02:12:59;16.53;;;10.33;;
11807;SDS011;5961;42.640;23.380;2022-08-21T02:15:27;18.13;;;11.17;;
11807;SDS011;5961;42.640;23.380;2022-08-21T02:17:55;14.80;;;10.17;;
11807;SDS011;5961;42.640;23.380;2022-08-21T02:20:25;13.57;;;8.83;;
11807;SDS011;5961;42.640;23.380;2022-08-21T02:22:55;14.10;;;9.10;;
11807;SDS011;5961;42.640;23.380;2022-08-21T02:25:22;12.63;;;8.40;;
11807;SDS011;5961;42.640;23.380;2022-08-21T02:27:51;12.07;;;7.83;;
11807;SDS011;5961;42.640;23.380;2022-08-21T02:30:20;9.93;;;6.67;;
11807;SDS011;5961;42.640;23.380;2022-08-21T02:32:50;10.87;;;6.80;;
11807;SDS011;5961;42.640;23.380;2022-08-21T02:35:17;8.23;;;6.30;;
11807;SDS011;5961;42.640;23.380;2022-08-21T02:37:45;13.17;;;6.87;;
11807;SDS011;5961;42.640;23.380;2022-08-21T02:40:14;17.23;;;6.80;;
11807;SDS011;5961;42.640;23.380;2022-08-21T02:42:44;12.87;;;6.20;;
11807;SDS011;5961;42.640;23.380;2022-08-21T02:45:11;8.73;;;5.33;;
11807;SDS011;5961;42.640;23.380;2022-08-21T02:47:40;10.13;;;5.73;;
11807;SDS011;5961;42.640;23.380;2022-08-21T02:50:12;9.40;;;5.67;;
11807;SDS011;5961;42.640;23.380;2022-08-21T02:52:39;8.70;;;5.70;;
11807;SDS011;5961;42.640;23.380;2022-08-21T02:55:06;10.87;;;5.63;;
11807;SDS011;5961;42.640;23.380;2022-08-21T02:57:32;9.00;;;5.60;;
11807;SDS011;5961;42.640;23.380;2022-08-21T02:59:59;10.57;;;5.27;;
11807;SDS011;5961;42.640;23.380;2022-08-21T03:02:26;8.33;;;4.83;;
11807;SDS011;5961;42.640;23.380;2022-08-21T03:04:54;8.10;;;4.87;;
11807;SDS011;5961;42.640;23.380;2022-08-21T03:07:20;8.27;;;5.03;;
11807;SDS011;5961;42.640;23.380;2022-08-21T03:09:47;9.10;;;4.33;;
11807;SDS011;5961;42.640;23.380;2022-08-21T03:12:14;9.67;;;4.90;;
11807;SDS011;5961;42.640;23.380;2022-08-21T03:14:41;9.60;;;4.30;;
11807;SDS011;5961;42.640;23.380;2022-08-21T03:17:08;7.20;;;4.57;;
11807;SDS011;5961;42.640;23.380;2022-08-21T03:19:34;10.93;;;4.40;;
11807;SDS011;5961;42.640;23.380;2022-08-21T03:22:02;6.37;;;5.13;;
11807;SDS011;5961;42.640;23.380;2022-08-21T03:24:30;9.73;;;4.50;;
11807;SDS011;5961;42.640;23.380;2022-08-21T03:26:57;9.23;;;4.57;;
11807;SDS011;5961;42.640;23.380;2022-08-21T03:29:23;7.00;;;4.13;;
11807;SDS011;5961;42.640;23.380;2022-08-21T03:31:50;9.57;;;4.27;;
11807;SDS011;5961;42.640;23.380;2022-08-21T03:34:19;9.83;;;4.13;;
11807;SDS011;5961;42.640;23.380;2022-08-21T03:36:46;7.97;;;3.87;;
11807;SDS011;5961;42.640;23.380;2022-08-21T03:39:15;6.20;;;3.80;;
11807;SDS011;5961;42.640;23.380;2022-08-21T03:41:42;6.50;;;4.23;;
11807;SDS011;5961;42.640;23.380;2022-08-21T03:44:09;6.70;;;4.00;;
11807;SDS011;5961;42.640;23.380;2022-08-21T03:46:36;7.07;;;4.13;;
11807;SDS011;5961;42.640;23.380;2022-08-21T03:49:03;7.53;;;4.30;;
11807;SDS011;5961;42.640;23.380;2022-08-21T03:51:30;7.67;;;3.97;;
11807;SDS011;5961;42.640;23.380;2022-08-21T03:53:58;6.17;;;4.27;;
11807;SDS011;5961;42.640;23.380;2022-08-21T03:56:26;6.20;;;4.17;;
11807;SDS011;5961;42.640;23.380;2022-08-21T03:58:53;10.33;;;4.30;;
11807;SDS011;5961;42.640;23.380;2022-08-21T04:01:20;11.80;;;5.93;;
11807;SDS011;5961;42.640;23.380;2022-08-21T04:03:47;10.03;;;5.80;;
11807;SDS011;5961;42.640;23.380;2022-08-21T04:06:14;10.03;;;6.40;;
11807;SDS011;5961;42.640;23.380;2022-08-21T04:08:40;12.17;;;6.50;;
11807;SDS011;5961;42.640;23.380;2022-08-21T04:11:08;14.50;;;7.40;;
11807;SDS011;5961;42.640;23.380;2022-08-21T04:13:37;15.17;;;7.20;;
11807;SDS011;5961;42.640;23.380;2022-08-21T04:16:06;12.13;;;6.83;;
11807;SDS011;5961;42.640;23.380;2022-08-21T04:18:33;13.00;;;6.57;;
11807;SDS011;5961;42.640;23.380;2022-08-21T04:21:00;14.03;;;6.97;;
11807;SDS011;5961;42.640;23.380;2022-08-21T04:23:28;12.60;;;6.73;;
11807;SDS011;5961;42.640;23.380;2022-08-21T04:25:56;12.90;;;7.10;;
11807;SDS011;5961;42.640;23.380;2022-08-21T04:28:23;12.20;;;7.57;;
11807;SDS011;5961;42.640;23.380;2022-08-21T04:30:54;11.70;;;7.17;;
11807;SDS011;5961;42.640;23.380;2022-08-21T04:33:21;11.17;;;7.03;;
11807;SDS011;5961;42.640;23.380;2022-08-21T04:35:48;14.03;;;6.77;;
11807;SDS011;5961;42.640;23.380;2022-08-21T04:38:16;12.53;;;5.90;;
11807;SDS011;5961;42.640;23.380;2022-08-21T04:40:42;7.63;;;5.40;;
11807;SDS011;5961;42.640;23.380;2022-08-21T04:43:10;9.93;;;6.00;;
11807;SDS011;5961;42.640;23.380;2022-08-21T04:45:37;14.13;;;5.87;;
11807;SDS011;5961;42.640;23.380;2022-08-21T04:48:08;7.13;;;5.33;;
11807;SDS011;5961;42.640;23.380;2022-08-21T04:50:37;8.87;;;4.93;;
11807;SDS011;5961;42.640;23.380;2022-08-21T04:53:11;9.30;;;4.77;;
11807;SDS011;5961;42.640;23.380;2022-08-21T04:55:40;10.27;;;5.17;;
11807;SDS011;5961;42.640;23.380;2022-08-21T04:58:08;7.47;;;4.40;;
11807;SDS011;5961;42.640;23.380;2022-08-21T05:00:36;7.90;;;4.03;;
11807;SDS011;5961;42.640;23.380;2022-08-21T05:03:04;9.80;;;4.37;;
11807;SDS011;5961;42.640;23.380;2022-08-21T05:05:35;9.03;;;3.50;;
11807;SDS011;5961;42.640;23.380;2022-08-21T05:08:02;7.00;;;3.73;;
11807;SDS011;5961;42.640;23.380;2022-08-21T05:10:30;9.10;;;4.03;;
11807;SDS011;5961;42.640;23.380;2022-08-21T05:12:57;5.13;;;3.77;;
11807;SDS011;5961;42.640;23.380;2022-08-21T05:15:25;5.37;;;3.57;;
11807;SDS011;5961;42.640;23.380;2022-08-21T05:17:52;8.80;;;4.60;;
11807;SDS011;5961;42.640;23.380;2022-08-21T05:20:19;9.37;;;4.10;;
11807;SDS011;5961;42.640;23.380;2022-08-21T05:22:47;6.53;;;4.20;;
11807;SDS011;5961;42.640;23.380;2022-08-21T05:25:14;6.30;;;3.83;;
11807;SDS011;5961;42.640;23.380;2022-08-21T05:27:41;3.63;;;3.20;;
11807;SDS011;5961;42.640;23.380;2022-08-21T05:30:08;5.00;;;3.40;;
11807;SDS011;5961;42.640;23.380;2022-08-21T05:32:36;9.45;;;4.82;;
11807;SDS011;5961;42.640;23.380;2022-08-21T05:35:03;9.67;;;5.00;;
11807;SDS011;5961;42.640;23.380;2022-08-21T05:37:31;7.53;;;4.70;;
11807;SDS011;5961;42.640;23.380;2022-08-21T05:40:00;7.53;;;4.10;;
11807;SDS011;5961;42.640;23.380;2022-08-21T05:42:27;8.03;;;3.97;;
11807;SDS011;5961;42.640;23.380;2022-08-21T05:44:53;6.93;;;4.50;;
11807;SDS011;5961;42.640;23.380;2022-08-21T05:47:20;6.90;;;4.20;;
11807;SDS011;5961;42.640;23.380;2022-08-21T05:49:47;7.57;;;4.00;;
11807;SDS011;5961;42.640;23.380;2022-08-21T05:52:17;5.60;;;3.60;;
11807;SDS011;5961;42.640;23.380;2022-08-21T05:54:45;10.20;;;3.72;;
11807;SDS011;5961;42.640;23.380;2022-08-21T05:57:13;6.33;;;4.57;;
11807;SDS011;5961;42.640;23.380;2022-08-21T05:59:39;7.50;;;5.23;;
11807;SDS011;5961;42.640;23.380;2022-08-21T06:02:06;9.45;;;5.20;;
11807;SDS011;5961;42.640;23.380;2022-08-21T06:04:34;8.83;;;5.57;;
11807;SDS011;5961;42.640;23.380;2022-08-21T06:07:02;12.40;;;6.33;;
11807;SDS011;5961;42.640;23.380;2022-08-21T06:09:29;11.00;;;6.78;;
11807;SDS011;5961;42.640;23.380;2022-08-21T06:11:56;7.57;;;5.18;;
11807;SDS011;5961;42.640;23.380;2022-08-21T06:14:24;11.10;;;6.13;;
11807;SDS011;5961;42.640;23.380;2022-08-21T06:16:51;10.80;;;6.35;;
11807;SDS011;5961;42.640;23.380;2022-08-21T06:19:17;8.23;;;6.20;;
11807;SDS011;5961;42.640;23.380;2022-08-21T06:21:44;8.07;;;4.90;;
11807;SDS011;5961;42.640;23.380;2022-08-21T06:24:11;6.03;;;5.05;;
11807;SDS011;5961;42.640;23.380;2022-08-21T06:26:38;10.15;;;6.40;;
11807;SDS011;5961;42.640;23.380;2022-08-21T06:29:04;11.18;;;5.40;;
11807;SDS011;5961;42.640;23.380;2022-08-21T06:31:33;8.07;;;4.60;;
11807;SDS011;5961;42.640;23.380;2022-08-21T06:34:00;8.73;;;6.30;;
11807;SDS011;5961;42.640;23.380;2022-08-21T06:36:27;10.13;;;6.20;;
11807;SDS011;5961;42.640;23.380;2022-08-21T06:38:54;9.48;;;5.28;;
11807;SDS011;5961;42.640;23.380;2022-08-21T06:41:20;8.95;;;4.68;;
11807;SDS011;5961;42.640;23.380;2022-08-21T06:43:47;12.00;;;5.65;;
11807;SDS011;5961;42.640;23.380;2022-08-21T06:46:14;8.00;;;4.57;;
11807;SDS011;5961;42.640;23.380;2022-08-21T06:48:42;6.75;;;4.80;;
11807;SDS011;5961;42.640;23.380;2022-08-21T06:51:09;12.50;;;6.00;;
11807;SDS011;5961;42.640;23.380;2022-08-21T06:53:36;8.00;;;5.80;;
11807;SDS011;5961;42.640;23.380;2022-08-21T06:56:03;7.35;;;4.93;;
11807;SDS011;5961;42.640;23.380;2022-08-21T06:58:30;8.15;;;5.68;;
11807;SDS011;5961;42.640;23.380;2022-08-21T07:00:57;7.75;;;4.88;;
11807;SDS011;5961;42.640;23.380;2022-08-21T07:03:25;7.80;;;5.25;;
11807;SDS011;5961;42.640;23.380;2022-08-21T07:05:55;14.30;;;7.60;;
11807;SDS011;5961;42.640;23.380;2022-08-21T07:08:23;10.18;;;5.70;;
11807;SDS011;5961;42.640;23.380;2022-08-21T07:10:51;9.65;;;5.30;;
11807;SDS011;5961;42.640;23.380;2022-08-21T07:13:19;7.47;;;5.35;;
11807;SDS011;5961;42.640;23.380;2022-08-21T07:15:46;8.38;;;5.03;;
11807;SDS011;5961;42.640;23.380;2022-08-21T07:18:13;12.45;;;5.07;;
11807;SDS011;5961;42.640;23.380;2022-08-21T07:20:40;11.15;;;5.10;;
11807;SDS011;5961;42.640;23.380;2022-08-21T07:23:11;8.50;;;5.30;;
11807;SDS011;5961;42.640;23.380;2022-08-21T07:25:41;10.75;;;5.15;;
11807;SDS011;5961;42.640;23.380;2022-08-21T07:28:07;8.50;;;6.22;;
11807;SDS011;5961;42.640;23.380;2022-08-21T07:30:35;11.70;;;6.60;;
11807;SDS011;5961;42.640;23.380;2022-08-21T07:33:01;12.68;;;6.28;;
11807;SDS011;5961;42.640;23.380;2022-08-21T07:35:28;10.20;;;5.85;;
11807;SDS011;5961;42.640;23.380;2022-08-21T07:37:56;16.40;;;6.25;;
11807;SDS011;5961;42.640;23.380;2022-08-21T07:40:24;10.77;;;7.05;;
11807;SDS011;5961;42.640;23.380;2022-08-21T07:42:51;10.38;;;5.88;;
11807;SDS011;5961;42.640;23.380;2022-08-21T07:45:19;13.63;;;6.78;;
11807;SDS011;5961;42.640;23.380;2022-08-21T07:47:49;11.02;;;5.35;;
11807;SDS011;5961;42.640;23.380;2022-08-21T07:50:16;9.98;;;6.05;;
11807;SDS011;5961;42.640;23.380;2022-08-21T07:52:44;7.40;;;6.70;;
11807;SDS011;5961;42.640;23.380;2022-08-21T07:55:11;8.70;;;6.03;;
11807;SDS011;5961;42.640;23.380;2022-08-21T07:57:42;11.38;;;6.63;;
11807;SDS011;5961;42.640;23.380;2022-08-21T08:00:10;9.50;;;6.80;;
11807;SDS011;5961;42.640;23.380;2022-08-21T08:02:44;9.50;;;6.22;;
11807;SDS011;5961;42.640;23.380;2022-08-21T08:05:14;10.82;;;6.85;;
11807;SDS011;5961;42.640;23.380;2022-08-21T08:07:42;9.80;;;6.00;;
11807;SDS011;5961;42.640;23.380;2022-08-21T08:10:09;12.85;;;5.97;;
11807;SDS011;5961;42.640;23.380;2022-08-21T08:12:37;14.10;;;6.22;;
11807;SDS011;5961;42.640;23.380;2022-08-21T08:15:08;11.80;;;6.13;;
11807;SDS011;5961;42.640;23.380;2022-08-21T08:17:38;11.50;;;6.43;;
11807;SDS011;5961;42.640;23.380;2022-08-21T08:20:05;10.05;;;6.10;;
11807;SDS011;5961;42.640;23.380;2022-08-21T08:22:33;12.23;;;6.22;;
11807;SDS011;5961;42.640;23.380;2022-08-21T08:25:01;10.43;;;6.57;;
11807;SDS011;5961;42.640;23.380;2022-08-21T08:27:27;10.70;;;6.55;;
11807;SDS011;5961;42.640;23.380;2022-08-21T08:29:54;9.05;;;6.15;;
11807;SDS011;5961;42.640;23.380;2022-08-21T08:32:22;11.68;;;6.85;;
11807;SDS011;5961;42.640;23.380;2022-08-21T08:34:49;14.45;;;8.23;;
11807;SDS011;5961;42.640;23.380;2022-08-21T08:37:17;12.80;;;6.70;;
11807;SDS011;5961;42.640;23.380;2022-08-21T08:39:46;8.73;;;5.90;;
11807;SDS011;5961;42.640;23.380;2022-08-21T08:42:14;12.82;;;6.53;;
11807;SDS011;5961;42.640;23.380;2022-08-21T08:44:47;10.13;;;6.60;;
11807;SDS011;5961;42.640;23.380;2022-08-21T08:47:18;11.00;;;6.50;;
11807;SDS011;5961;42.640;23.380;2022-08-21T08:49:49;9.27;;;6.95;;
11807;SDS011;5961;42.640;23.380;2022-08-21T08:52:26;9.23;;;6.28;;
11807;SDS011;5961;42.640;23.380;2022-08-21T08:54:57;9.65;;;6.60;;
11807;SDS011;5961;42.640;23.380;2022-08-21T08:57:28;10.73;;;6.13;;
11807;SDS011;5961;42.640;23.380;2022-08-21T08:59:56;10.15;;;7.20;;
11807;SDS011;5961;42.640;23.380;2022-08-21T09:02:26;8.65;;;5.88;;
11807;SDS011;5961;42.640;23.380;2022-08-21T09:04:55;10.57;;;6.10;;
11807;SDS011;5961;42.640;23.380;2022-08-21T09:07:24;12.30;;;6.43;;
11807;SDS011;5961;42.640;23.380;2022-08-21T09:10:05;8.88;;;6.55;;
11807;SDS011;5961;42.640;23.380;2022-08-21T09:12:44;7.82;;;6.40;;
11807;SDS011;5961;42.640;23.380;2022-08-21T09:15:20;12.63;;;6.57;;
11807;SDS011;5961;42.640;23.380;2022-08-21T09:17:59;10.65;;;5.93;;
11807;SDS011;5961;42.640;23.380;2022-08-21T09:21:02;10.00;;;6.55;;
11807;SDS011;5961;42.640;23.380;2022-08-21T09:23:40;11.25;;;6.60;;
11807;SDS011;5961;42.640;23.380;2022-08-21T09:26:29;13.40;;;7.20;;
11807;SDS011;5961;42.640;23.380;2022-08-21T09:29:02;10.50;;;7.30;;
11807;SDS011;5961;42.640;23.380;2022-08-21T09:31:31;10.73;;;7.07;;
11807;SDS011;5961;42.640;23.380;2022-08-21T09:34:00;9.13;;;6.40;;
11807;SDS011;5961;42.640;23.380;2022-08-21T09:36:36;10.07;;;6.35;;
11807;SDS011;5961;42.640;23.380;2022-08-21T09:39:04;10.70;;;7.00;;
11807;SDS011;5961;42.640;23.380;2022-08-21T09:41:33;10.77;;;7.05;;
11807;SDS011;5961;42.640;23.380;2022-08-21T09:44:01;10.02;;;6.78;;
11807;SDS011;5961;42.640;23.380;2022-08-21T09:46:29;14.02;;;7.25;;
11807;SDS011;5961;42.640;23.380;2022-08-21T09:48:56;12.23;;;6.43;;
11807;SDS011;5961;42.640;23.380;2022-08-21T09:51:25;12.63;;;7.05;;
11807;SDS011;5961;42.640;23.380;2022-08-21T09:53:55;13.93;;;7.40;;
11807;SDS011;5961;42.640;23.380;2022-08-21T09:56:28;19.33;;;6.65;;
11807;SDS011;5961;42.640;23.380;2022-08-21T09:59:19;11.88;;;6.45;;
11807;SDS011;5961;42.640;23.380;2022-08-21T10:01:52;10.05;;;6.28;;
11807;SDS011;5961;42.640;23.380;2022-08-21T10:04:20;10.38;;;5.80;;
11807;SDS011;5961;42.640;23.380;2022-08-21T10:06:49;15.00;;;6.28;;
11807;SDS011;5961;42.640;23.380;2022-08-21T10:09:18;6.85;;;5.88;;
11807;SDS011;5961;42.640;23.380;2022-08-21T10:11:49;7.88;;;6.28;;
11807;SDS011;5961;42.640;23.380;2022-08-21T10:14:34;10.45;;;5.65;;
11807;SDS011;5961;42.640;23.380;2022-08-21T10:17:13;9.93;;;5.82;;
11807;SDS011;5961;42.640;23.380;2022-08-21T10:19:47;8.90;;;5.32;;
11807;SDS011;5961;42.640;23.380;2022-08-21T10:22:24;10.73;;;5.68;;
11807;SDS011;5961;42.640;23.380;2022-08-21T10:25:02;7.75;;;5.45;;
11807;SDS011;5961;42.640;23.380;2022-08-21T10:27:40;12.18;;;6.45;;
11807;SDS011;5961;42.640;23.380;2022-08-21T10:30:14;10.13;;;6.15;;
11807;SDS011;5961;42.640;23.380;2022-08-21T10:35:44;8.77;;;5.75;;
11807;SDS011;5961;42.640;23.380;2022-08-21T10:41:24;10.38;;;5.65;;
11807;SDS011;5961;42.640;23.380;2022-08-21T10:44:07;13.98;;;6.00;;
11807;SDS011;5961;42.640;23.380;2022-08-21T10:46:45;11.70;;;5.65;;
11807;SDS011;5961;42.640;23.380;2022-08-21T10:49:21;11.18;;;5.70;;
11807;SDS011;5961;42.640;23.380;2022-08-21T10:52:02;10.45;;;5.93;;
11807;SDS011;5961;42.640;23.380;2022-08-21T10:54:55;10.90;;;5.65;;
11807;SDS011;5961;42.640;23.380;2022-08-21T10:57:29;10.05;;;5.50;;
11807;SDS011;5961;42.640;23.380;2022-08-21T11:00:05;11.10;;;5.78;;
11807;SDS011;5961;42.640;23.380;2022-08-21T11:02:37;7.47;;;5.10;;
11807;SDS011;5961;42.640;23.380;2022-08-21T11:05:10;9.95;;;5.10;;
11807;SDS011;5961;42.640;23.380;2022-08-21T11:07:43;10.93;;;6.28;;
11807;SDS011;5961;42.640;23.380;2022-08-21T11:10:15;16.05;;;6.32;;
11807;SDS011;5961;42.640;23.380;2022-08-21T11:12:49;14.88;;;6.43;;
11807;SDS011;5961;42.640;23.380;2022-08-21T11:15:31;11.60;;;5.45;;
11807;SDS011;5961;42.640;23.380;2022-08-21T11:18:07;11.52;;;5.03;;
11807;SDS011;5961;42.640;23.380;2022-08-21T11:20:42;10.73;;;5.45;;
11807;SDS011;5961;42.640;23.380;2022-08-21T11:23:17;6.38;;;5.40;;
11807;SDS011;5961;42.640;23.380;2022-08-21T11:25:50;8.98;;;5.70;;
11807;SDS011;5961;42.640;23.380;2022-08-21T11:28:24;7.93;;;5.40;;
11807;SDS011;5961;42.640;23.380;2022-08-21T11:30:59;6.97;;;5.47;;
11807;SDS011;5961;42.640;23.380;2022-08-21T11:33:48;10.57;;;5.47;;
11807;SDS011;5961;42.640;23.380;2022-08-21T11:36:30;6.93;;;4.70;;
11807;SDS011;5961;42.640;23.380;2022-08-21T11:39:06;7.60;;;5.50;;
11807;SDS011;5961;42.640;23.380;2022-08-21T11:41:43;8.40;;;5.32;;
11807;SDS011;5961;42.640;23.380;2022-08-21T11:44:24;11.10;;;5.50;;
11807;SDS011;5961;42.640;23.380;2022-08-21T11:47:01;10.48;;;5.25;;
11807;SDS011;5961;42.640;23.380;2022-08-21T11:52:39;10.82;;;6.00;;
11807;SDS011;5961;42.640;23.380;2022-08-21T11:55:12;10.95;;;5.40;;
11807;SDS011;5961;42.640;23.380;2022-08-21T11:57:45;12.13;;;5.57;;
11807;SDS011;5961;42.640;23.380;2022-08-21T12:00:19;12.60;;;6.00;;
11807;SDS011;5961;42.640;23.380;2022-08-21T12:02:50;7.10;;;5.30;;
11807;SDS011;5961;42.640;23.380;2022-08-21T12:05:24;15.20;;;6.85;;
11807;SDS011;5961;42.640;23.380;2022-08-21T12:08:02;19.08;;;6.53;;
11807;SDS011;5961;42.640;23.380;2022-08-21T12:10:32;6.78;;;5.53;;
11807;SDS011;5961;42.640;23.380;2022-08-21T12:13:08;12.27;;;5.95;;
11807;SDS011;5961;42.640;23.380;2022-08-21T12:15:40;15.18;;;6.25;;
11807;SDS011;5961;42.640;23.380;2022-08-21T12:18:18;12.13;;;5.85;;
11807;SDS011;5961;42.640;23.380;2022-08-21T12:20:59;10.50;;;6.32;;
11807;SDS011;5961;42.640;23.380;2022-08-21T12:23:31;10.50;;;6.00;;
11807;SDS011;5961;42.640;23.380;2022-08-21T12:26:23;9.85;;;6.47;;
11807;SDS011;5961;42.640;23.380;2022-08-21T12:29:03;10.93;;;6.47;;
11807;SDS011;5961;42.640;23.380;2022-08-21T12:31:34;31.73;;;7.72;;
11807;SDS011;5961;42.640;23.380;2022-08-21T12:34:01;17.13;;;6.18;;
11807;SDS011;5961;42.640;23.380;2022-08-21T12:36:38;39.05;;;6.82;;
11807;SDS011;5961;42.640;23.380;2022-08-21T12:39:14;10.60;;;6.03;;
11807;SDS011;5961;42.640;23.380;2022-08-21T12:41:46;15.63;;;7.63;;
11807;SDS011;5961;42.640;23.380;2022-08-21T12:44:20;11.63;;;6.28;;
11807;SDS011;5961;42.640;23.380;2022-08-21T12:46:54;9.80;;;6.10;;
11807;SDS011;5961;42.640;23.380;2022-08-21T12:49:26;10.18;;;6.05;;
11807;SDS011;5961;42.640;23.380;2022-08-21T12:51:57;12.13;;;6.15;;
11807;SDS011;5961;42.640;23.380;2022-08-21T12:54:29;9.77;;;6.15;;
11807;SDS011;5961;42.640;23.380;2022-08-21T12:56:58;13.85;;;6.18;;
11807;SDS011;5961;42.640;23.380;2022-08-21T12:59:26;8.40;;;5.40;;
11807;SDS011;5961;42.640;23.380;2022-08-21T13:01:55;6.25;;;5.32;;
11807;SDS011;5961;42.640;23.380;2022-08-21T13:04:30;10.27;;;5.75;;
11807;SDS011;5961;42.640;23.380;2022-08-21T13:07:01;7.78;;;5.70;;
11807;SDS011;5961;42.640;23.380;2022-08-21T13:09:32;11.65;;;6.32;;
11807;SDS011;5961;42.640;23.380;2022-08-21T13:11:59;22.05;;;7.03;;
11807;SDS011;5961;42.640;23.380;2022-08-21T13:14:28;13.45;;;5.50;;
11807;SDS011;5961;42.640;23.380;2022-08-21T13:16:59;8.00;;;5.63;;
11807;SDS011;5961;42.640;23.380;2022-08-21T13:19:27;11.60;;;6.00;;
11807;SDS011;5961;42.640;23.380;2022-08-21T13:21:54;11.98;;;5.47;;
11807;SDS011;5961;42.640;23.380;2022-08-21T13:24:23;17.17;;;6.43;;
11807;SDS011;5961;42.640;23.380;2022-08-21T13:26:51;8.75;;;5.90;;
11807;SDS011;5961;42.640;23.380;2022-08-21T13:29:20;8.80;;;5.90;;
11807;SDS011;5961;42.640;23.380;2022-08-21T13:31:49;9.23;;;5.45;;
11807;SDS011;5961;42.640;23.380;2022-08-21T13:34:19;9.60;;;6.60;;
11807;SDS011;5961;42.640;23.380;2022-08-21T13:36:47;11.32;;;6.03;;
11807;SDS011;5961;42.640;23.380;2022-08-21T13:39:14;14.18;;;6.38;;
11807;SDS011;5961;42.640;23.380;2022-08-21T13:41:45;8.48;;;5.72;;
11807;SDS011;5961;42.640;23.380;2022-08-21T13:44:16;12.18;;;6.93;;
11807;SDS011;5961;42.640;23.380;2022-08-21T13:46:44;11.93;;;6.63;;
11807;SDS011;5961;42.640;23.380;2022-08-21T13:49:13;12.90;;;5.93;;
11807;SDS011;5961;42.640;23.380;2022-08-21T13:51:46;9.18;;;6.50;;
11807;SDS011;5961;42.640;23.380;2022-08-21T13:54:16;9.00;;;6.65;;
11807;SDS011;5961;42.640;23.380;2022-08-21T13:56:48;12.85;;;7.22;;
11807;SDS011;5961;42.640;23.380;2022-08-21T13:59:23;12.20;;;9.80;;
11807;SDS011;5961;42.640;23.380;2022-08-21T14:01:52;11.85;;;8.15;;
11807;SDS011;5961;42.640;23.380;2022-08-21T14:04:24;12.82;;;9.05;;
11807;SDS011;5961;42.640;23.380;2022-08-21T14:06:59;18.60;;;12.32;;
11807;SDS011;5961;42.640;23.380;2022-08-21T14:09:28;15.50;;;11.65;;
11807;SDS011;5961;42.640;23.380;2022-08-21T14:11:57;19.38;;;12.70;;
11807;SDS011;5961;42.640;23.380;2022-08-21T14:14:28;14.32;;;8.75;;
11807;SDS011;5961;42.640;23.380;2022-08-21T14:16:58;17.88;;;9.45;;
11807;SDS011;5961;42.640;23.380;2022-08-21T14:19:27;17.08;;;8.25;;
11807;SDS011;5961;42.640;23.380;2022-08-21T14:24:49;14.15;;;6.20;;
11807;SDS011;5961;42.640;23.380;2022-08-21T14:27:24;9.93;;;5.70;;
11807;SDS011;5961;42.640;23.380;2022-08-21T14:29:56;10.98;;;6.03;;
11807;SDS011;5961;42.640;23.380;2022-08-21T14:32:25;7.55;;;6.30;;
11807;SDS011;5961;42.640;23.380;2022-08-21T14:34:55;11.15;;;6.78;;
11807;SDS011;5961;42.640;23.380;2022-08-21T14:37:24;10.25;;;6.57;;
11807;SDS011;5961;42.640;23.380;2022-08-21T14:39:51;12.57;;;6.35;;
11807;SDS011;5961;42.640;23.380;2022-08-21T14:42:18;13.40;;;8.90;;
11807;SDS011;5961;42.640;23.380;2022-08-21T14:44:45;21.50;;;14.88;;
11807;SDS011;5961;42.640;23.380;2022-08-21T14:47:13;19.30;;;15.23;;
11807;SDS011;5961;42.640;23.380;2022-08-21T14:49:40;20.88;;;11.68;;
11807;SDS011;5961;42.640;23.380;2022-08-21T14:52:06;12.60;;;6.72;;
11807;SDS011;5961;42.640;23.380;2022-08-21T14:54:35;14.20;;;6.50;;
11807;SDS011;5961;42.640;23.380;2022-08-21T14:57:03;15.05;;;7.78;;
11807;SDS011;5961;42.640;23.380;2022-08-21T14:59:34;10.05;;;6.95;;
11807;SDS011;5961;42.640;23.380;2022-08-21T15:02:01;9.15;;;6.22;;
11807;SDS011;5961;42.640;23.380;2022-08-21T15:04:29;10.95;;;5.70;;
11807;SDS011;5961;42.640;23.380;2022-08-21T15:06:56;12.40;;;5.97;;